createdAt,value
2022-10-02T00:00:11.811Z,12.19
2022-10-02T00:01:14.641Z,12.19
2022-10-02T00:02:17.892Z,12.19
2022-10-02T00:03:52.474Z,12.19
2022-10-02T00:04:55.644Z,12.19
2022-10-02T00:05:58.363Z,12.19
2022-10-02T00:07:32.974Z,12.19
2022-10-02T00:08:35.749Z,12.19
2022-10-02T00:09:38.515Z,12.19
2022-10-02T00:11:13.144Z,12.19
2022-10-02T00:12:15.896Z,12.19
2022-10-02T00:13:18.745Z,12.19
2022-10-02T00:14:53.306Z,12.19
2022-10-02T00:15:56.045Z,12.13
2022-10-02T00:16:59.363Z,12.13
2022-10-02T00:18:33.885Z,12.13
2022-10-02T00:19:36.851Z,12.13
2022-10-02T00:20:39.637Z,12.13
2022-10-02T00:22:13.976Z,12.06
2022-10-02T00:23:16.661Z,12.06
2022-10-02T00:24:19.318Z,12.06
2022-10-02T00:25:54.058Z,12.00
2022-10-02T00:26:56.771Z,12.00
2022-10-02T00:27:59.621Z,11.94
2022-10-02T00:29:34.703Z,11.88
2022-10-02T00:30:37.595Z,11.88
2022-10-02T00:31:40.961Z,11.81
2022-10-02T00:33:16.287Z,11.81
2022-10-02T00:34:18.986Z,11.81
2022-10-02T00:35:21.757Z,11.75
2022-10-02T00:36:56.262Z,11.75
2022-10-02T00:37:59.000Z,11.75
2022-10-02T00:39:01.717Z,11.69
2022-10-02T00:40:36.107Z,11.69
2022-10-02T00:41:39.019Z,11.69
2022-10-02T00:42:41.791Z,11.69
2022-10-02T00:44:16.480Z,11.69
2022-10-02T00:45:19.230Z,11.69
2022-10-02T00:46:22.886Z,11.69
2022-10-02T00:47:58.111Z,11.75
2022-10-02T00:49:00.948Z,11.75
2022-10-02T00:50:03.906Z,11.75
2022-10-02T00:51:38.260Z,11.75
2022-10-02T00:52:40.986Z,11.81
2022-10-02T00:53:43.907Z,11.81
2022-10-02T00:55:18.395Z,11.88
2022-10-02T00:56:21.428Z,11.88
2022-10-02T00:57:24.922Z,11.88
2022-10-02T00:58:59.504Z,11.88
2022-10-02T01:00:12.374Z,11.88
2022-10-02T01:01:15.579Z,11.88
2022-10-02T01:02:18.794Z,11.88
2022-10-02T01:03:53.633Z,11.88
2022-10-02T01:04:56.463Z,11.88
2022-10-02T01:05:59.310Z,11.81
2022-10-02T01:07:33.830Z,11.81
2022-10-02T01:08:36.668Z,11.81
2022-10-02T01:09:39.395Z,11.81
2022-10-02T01:11:14.203Z,11.81
2022-10-02T01:12:17.104Z,11.81
2022-10-02T01:13:19.786Z,11.81
2022-10-02T01:14:54.220Z,11.81
2022-10-02T01:15:56.935Z,11.81
2022-10-02T01:17:00.241Z,11.81
2022-10-02T01:18:34.759Z,11.81
2022-10-02T01:19:37.474Z,11.81
2022-10-02T01:20:40.283Z,11.81
2022-10-02T01:22:14.850Z,11.81
2022-10-02T01:23:17.548Z,11.81
2022-10-02T01:24:20.197Z,11.81
2022-10-02T01:25:54.849Z,11.81
2022-10-02T01:26:57.629Z,11.81
2022-10-02T01:28:00.399Z,11.81
2022-10-02T01:29:35.477Z,11.81
2022-10-02T01:30:38.389Z,11.81
2022-10-02T01:31:41.110Z,11.75
2022-10-02T01:33:16.004Z,11.75
2022-10-02T01:34:19.006Z,11.75
2022-10-02T01:35:21.746Z,11.69
2022-10-02T01:36:56.137Z,11.69
2022-10-02T01:37:58.861Z,11.69
2022-10-02T01:39:01.534Z,11.69
2022-10-02T01:40:36.072Z,11.63
2022-10-02T01:41:38.767Z,11.63
2022-10-02T01:42:41.570Z,11.63
2022-10-02T01:44:15.997Z,11.63
2022-10-02T01:45:18.755Z,11.56
2022-10-02T01:46:22.073Z,11.56
2022-10-02T01:47:57.411Z,11.56
2022-10-02T01:49:00.093Z,11.56
2022-10-02T01:50:02.772Z,11.56
2022-10-02T01:51:37.257Z,11.56
2022-10-02T01:52:39.947Z,11.56
2022-10-02T01:53:42.690Z,11.50
2022-10-02T01:55:17.218Z,11.56
2022-10-02T01:56:19.877Z,11.50
2022-10-02T01:57:22.832Z,11.50
2022-10-02T01:58:57.241Z,11.56
2022-10-02T02:00:00.023Z,11.56
2022-10-02T02:00:12.030Z,11.56
2022-10-02T02:01:14.891Z,11.56
2022-10-02T02:02:18.284Z,11.56
2022-10-02T02:03:53.402Z,11.50
2022-10-02T02:04:56.266Z,11.50
2022-10-02T02:05:59.020Z,11.50
2022-10-02T02:07:33.593Z,11.44
2022-10-02T02:08:36.474Z,11.44
2022-10-02T02:09:42.590Z,11.44
2022-10-02T02:11:17.242Z,11.44
2022-10-02T02:12:20.229Z,11.44
2022-10-02T02:13:23.010Z,11.44
2022-10-02T02:14:57.311Z,11.38
2022-10-02T02:15:59.970Z,11.38
2022-10-02T02:17:03.311Z,11.38
2022-10-02T02:18:37.777Z,11.38
2022-10-02T02:19:40.523Z,11.38
2022-10-02T02:20:43.383Z,11.38
2022-10-02T02:22:17.802Z,11.31
2022-10-02T02:23:20.616Z,11.31
2022-10-02T02:24:23.396Z,11.31
2022-10-02T02:25:57.835Z,11.31
2022-10-02T02:27:00.512Z,11.31
2022-10-02T02:28:03.433Z,11.31
2022-10-02T02:29:38.451Z,11.25
2022-10-02T02:30:41.279Z,11.25
2022-10-02T02:31:44.286Z,11.25
2022-10-02T02:33:19.242Z,11.25
2022-10-02T02:34:22.112Z,11.25
2022-10-02T02:35:24.805Z,11.25
2022-10-02T02:36:59.509Z,11.19
2022-10-02T02:38:02.268Z,11.19
2022-10-02T02:39:05.140Z,11.19
2022-10-02T02:40:39.550Z,11.19
2022-10-02T02:41:42.481Z,11.19
2022-10-02T02:42:45.228Z,11.19
2022-10-02T02:44:19.681Z,11.19
2022-10-02T02:45:22.593Z,11.19
2022-10-02T02:46:26.064Z,11.19
2022-10-02T02:48:01.042Z,11.19
2022-10-02T02:49:03.713Z,11.19
2022-10-02T02:50:06.481Z,11.19
2022-10-02T02:51:41.154Z,11.19
2022-10-02T02:52:43.846Z,11.13
2022-10-02T02:53:46.806Z,11.13
2022-10-02T02:55:21.315Z,11.13
2022-10-02T02:56:30.831Z,11.13
2022-10-02T02:57:34.285Z,11.13
2022-10-02T02:59:08.685Z,11.13
2022-10-02T03:00:12.595Z,11.13
2022-10-02T03:01:15.555Z,11.13
2022-10-02T03:02:18.785Z,11.13
2022-10-02T03:03:53.867Z,11.13
2022-10-02T03:04:56.571Z,11.13
2022-10-02T03:05:59.299Z,11.13
2022-10-02T03:07:34.131Z,11.13
2022-10-02T03:08:36.847Z,11.13
2022-10-02T03:09:39.543Z,11.13
2022-10-02T03:11:14.358Z,11.06
2022-10-02T03:12:17.050Z,11.06
2022-10-02T03:13:19.798Z,11.13
2022-10-02T03:14:54.323Z,11.06
2022-10-02T03:15:57.046Z,11.13
2022-10-02T03:17:00.117Z,11.13
2022-10-02T03:18:34.533Z,11.13
2022-10-02T03:19:37.227Z,11.13
2022-10-02T03:20:39.800Z,11.19
2022-10-02T03:22:14.360Z,11.19
2022-10-02T03:23:17.158Z,11.25
2022-10-02T03:24:19.868Z,11.25
2022-10-02T03:25:54.431Z,11.25
2022-10-02T03:26:57.247Z,11.25
2022-10-02T03:28:00.035Z,11.25
2022-10-02T03:30:08.757Z,11.31
2022-10-02T03:31:11.731Z,11.31
2022-10-02T03:32:14.995Z,11.31
2022-10-02T03:33:49.539Z,11.31
2022-10-02T03:34:52.251Z,11.38
2022-10-02T03:35:54.915Z,11.38
2022-10-02T03:37:29.544Z,11.38
2022-10-02T03:38:32.430Z,11.38
2022-10-02T03:40:06.423Z,11.38
2022-10-02T03:41:41.090Z,11.38
2022-10-02T03:42:43.780Z,11.38
2022-10-02T03:43:46.432Z,11.38
2022-10-02T03:45:46.070Z,11.38
2022-10-02T03:46:52.865Z,11.38
2022-10-02T03:47:55.636Z,11.31
2022-10-02T03:49:30.017Z,11.31
2022-10-02T03:50:36.188Z,11.31
2022-10-02T03:51:39.294Z,11.31
2022-10-02T03:53:13.936Z,11.31
2022-10-02T03:54:16.683Z,11.31
2022-10-02T03:55:19.296Z,11.31
2022-10-02T03:56:54.020Z,11.25
2022-10-02T03:57:56.859Z,11.25
2022-10-02T03:58:59.646Z,11.25
2022-10-02T04:00:12.322Z,11.19
2022-10-02T04:01:15.022Z,11.19
2022-10-02T04:02:23.961Z,11.19
2022-10-02T04:03:58.576Z,11.19
2022-10-02T04:05:01.339Z,11.19
2022-10-02T04:05:41.768Z,11.19
2022-10-02T04:06:44.757Z,11.19
2022-10-02T04:07:52.487Z,11.19
2022-10-02T04:09:27.753Z,11.19
2022-10-02T04:10:30.370Z,11.19
2022-10-02T04:11:33.240Z,11.19
2022-10-02T04:13:07.951Z,11.13
2022-10-02T04:14:10.774Z,11.13
2022-10-02T04:15:13.676Z,11.13
2022-10-02T04:16:49.024Z,11.13
2022-10-02T04:17:55.736Z,11.13
2022-10-02T04:19:01.049Z,11.13
2022-10-02T04:20:35.947Z,11.19
2022-10-02T04:21:38.892Z,11.19
2022-10-02T04:22:41.733Z,11.19
2022-10-02T04:24:16.711Z,11.19
2022-10-02T04:25:19.436Z,11.25
2022-10-02T04:26:22.571Z,11.19
2022-10-02T04:27:57.973Z,11.19
2022-10-02T04:29:01.489Z,11.19
2022-10-02T04:30:04.145Z,11.19
2022-10-02T04:31:39.097Z,11.19
2022-10-02T04:32:42.212Z,11.19
2022-10-02T04:33:45.075Z,11.19
2022-10-02T04:35:19.820Z,11.19
2022-10-02T04:36:22.752Z,11.19
2022-10-02T04:37:25.761Z,11.19
2022-10-02T04:39:00.434Z,11.25
2022-10-02T04:40:03.247Z,11.25
2022-10-02T04:41:06.149Z,11.25
2022-10-02T04:42:40.696Z,11.31
2022-10-02T04:43:43.355Z,11.31
2022-10-02T04:44:46.340Z,11.31
2022-10-02T04:46:21.688Z,11.31
2022-10-02T04:47:25.439Z,11.31
2022-10-02T04:48:28.330Z,11.31
2022-10-02T04:50:03.152Z,11.31
2022-10-02T04:51:05.844Z,11.31
2022-10-02T04:52:08.639Z,11.31
2022-10-02T04:53:43.432Z,11.31
2022-10-02T04:54:46.303Z,11.31
2022-10-02T04:55:49.115Z,11.31
2022-10-02T04:57:24.536Z,11.31
2022-10-02T04:58:27.350Z,11.31
2022-10-02T04:59:30.445Z,11.31
2022-10-02T05:00:12.341Z,11.31
2022-10-02T05:01:15.870Z,11.25
2022-10-02T05:02:19.000Z,11.25
2022-10-02T05:03:53.957Z,11.25
2022-10-02T05:05:01.254Z,11.19
2022-10-02T05:06:04.064Z,11.19
2022-10-02T05:07:38.864Z,11.19
2022-10-02T05:08:41.613Z,11.19
2022-10-02T05:09:44.632Z,11.19
2022-10-02T05:11:19.269Z,11.13
2022-10-02T05:12:22.068Z,11.13
2022-10-02T05:13:24.986Z,11.13
2022-10-02T05:14:59.624Z,11.19
2022-10-02T05:16:02.581Z,11.19
2022-10-02T05:17:06.212Z,11.19
2022-10-02T05:18:40.820Z,11.19
2022-10-02T05:19:43.682Z,11.19
2022-10-02T05:20:46.404Z,11.19
2022-10-02T05:22:21.030Z,11.19
2022-10-02T05:23:23.972Z,11.19
2022-10-02T05:24:26.753Z,11.19
2022-10-02T05:26:01.453Z,11.19
2022-10-02T05:27:11.141Z,11.19
2022-10-02T05:28:14.014Z,11.25
2022-10-02T05:29:48.925Z,11.25
2022-10-02T05:30:51.842Z,11.25
2022-10-02T05:31:55.273Z,11.25
2022-10-02T05:33:29.977Z,11.25
2022-10-02T05:34:39.699Z,11.25
2022-10-02T05:35:42.710Z,11.31
2022-10-02T05:37:18.060Z,11.31
2022-10-02T05:38:20.901Z,11.31
2022-10-02T05:39:23.835Z,11.31
2022-10-02T05:40:58.570Z,11.38
2022-10-02T05:42:01.455Z,11.38
2022-10-02T05:43:04.251Z,11.38
2022-10-02T05:44:39.207Z,11.38
2022-10-02T05:45:41.951Z,11.38
2022-10-02T05:46:44.835Z,11.38
2022-10-02T05:48:19.640Z,11.38
2022-10-02T05:49:22.398Z,11.38
2022-10-02T05:50:25.390Z,11.38
2022-10-02T05:52:00.300Z,11.44
2022-10-02T05:53:02.992Z,11.44
2022-10-02T05:54:05.668Z,11.44
2022-10-02T05:55:40.148Z,11.50
2022-10-02T05:56:42.988Z,11.50
2022-10-02T05:57:45.662Z,11.50
2022-10-02T05:59:20.359Z,11.56
2022-10-02T06:00:11.942Z,11.56
2022-10-02T06:01:15.038Z,11.56
2022-10-02T06:02:18.406Z,11.56
2022-10-02T06:03:57.331Z,11.56
2022-10-02T06:05:00.357Z,11.56
2022-10-02T06:06:03.258Z,11.56
2022-10-02T06:07:37.889Z,11.63
2022-10-02T06:08:40.634Z,11.69
2022-10-02T06:09:43.569Z,11.69
2022-10-02T06:11:18.194Z,11.69
2022-10-02T06:12:20.944Z,11.75
2022-10-02T06:13:24.160Z,11.75
2022-10-02T06:14:58.800Z,11.81
2022-10-02T06:16:01.715Z,11.81
2022-10-02T06:17:05.141Z,11.81
2022-10-02T06:18:39.741Z,11.88
2022-10-02T06:19:42.520Z,11.88
2022-10-02T06:20:49.680Z,11.88
2022-10-02T06:22:24.230Z,11.88
2022-10-02T06:23:26.900Z,11.88
2022-10-02T06:24:29.663Z,11.88
2022-10-02T06:26:04.452Z,11.94
2022-10-02T06:27:07.478Z,11.94
2022-10-02T06:28:10.498Z,11.94
2022-10-02T06:29:52.301Z,11.94
2022-10-02T06:30:55.066Z,11.94
2022-10-02T06:31:58.338Z,11.94
2022-10-02T06:33:33.052Z,11.94
2022-10-02T06:34:35.854Z,11.94
2022-10-02T06:35:45.198Z,11.94
2022-10-02T06:37:20.551Z,11.94
2022-10-02T06:38:23.493Z,11.94
2022-10-02T06:39:26.158Z,11.88
2022-10-02T06:41:00.691Z,11.88
2022-10-02T06:42:03.545Z,11.88
2022-10-02T06:43:06.508Z,11.88
2022-10-02T06:44:41.270Z,11.81
2022-10-02T06:45:44.240Z,11.88
2022-10-02T06:46:51.159Z,11.81
2022-10-02T06:48:26.396Z,11.81
2022-10-02T06:49:29.253Z,11.81
2022-10-02T06:50:32.092Z,11.81
2022-10-02T06:52:06.624Z,11.81
2022-10-02T06:53:13.300Z,11.81
2022-10-02T06:54:16.170Z,11.81
2022-10-02T06:55:50.877Z,11.81
2022-10-02T06:56:53.811Z,11.88
2022-10-02T06:57:56.557Z,11.88
2022-10-02T06:59:31.510Z,11.88
2022-10-02T07:00:12.480Z,11.88
2022-10-02T07:01:15.785Z,11.88
2022-10-02T07:02:18.924Z,11.94
2022-10-02T07:03:53.600Z,11.94
2022-10-02T07:04:56.398Z,12.00
2022-10-02T07:05:59.299Z,12.00
2022-10-02T07:07:33.802Z,12.06
2022-10-02T07:08:36.533Z,12.06
2022-10-02T07:09:39.409Z,12.06
2022-10-02T07:11:13.907Z,12.13
2022-10-02T07:12:16.815Z,12.19
2022-10-02T07:13:19.560Z,12.25
2022-10-02T07:14:54.057Z,12.25
2022-10-02T07:15:56.955Z,12.25
2022-10-02T07:17:00.195Z,12.25
2022-10-02T07:18:40.063Z,12.31
2022-10-02T07:19:42.900Z,12.31
2022-10-02T07:20:45.835Z,12.31
2022-10-02T07:22:39.510Z,12.31
2022-10-02T07:23:48.240Z,12.38
2022-10-02T07:24:54.620Z,12.38
2022-10-02T07:26:29.309Z,12.38
2022-10-02T07:27:32.702Z,12.38
2022-10-02T07:28:35.952Z,12.44
2022-10-02T07:30:10.603Z,12.44
2022-10-02T07:31:13.584Z,12.44
2022-10-02T07:32:17.143Z,12.50
2022-10-02T07:33:51.647Z,12.50
2022-10-02T07:34:54.418Z,12.50
2022-10-02T07:35:57.121Z,12.50
2022-10-02T07:37:31.576Z,12.50
2022-10-02T07:38:34.364Z,12.56
2022-10-02T07:39:37.175Z,12.56
2022-10-02T07:41:11.700Z,12.63
2022-10-02T07:42:14.475Z,12.63
2022-10-02T07:43:17.204Z,12.63
2022-10-02T07:44:51.715Z,12.63
2022-10-02T07:45:54.729Z,12.63
2022-10-02T07:47:01.419Z,12.63
2022-10-02T07:48:36.007Z,12.63
2022-10-02T07:49:39.128Z,12.63
2022-10-02T07:50:41.917Z,12.63
2022-10-02T07:52:16.475Z,12.69
2022-10-02T07:53:19.287Z,12.69
2022-10-02T07:54:22.256Z,12.75
2022-10-02T07:55:56.882Z,12.81
2022-10-02T07:56:59.779Z,12.81
2022-10-02T07:58:07.327Z,12.88
2022-10-02T07:59:42.024Z,12.94
2022-10-02T08:00:12.190Z,12.94
2022-10-02T08:01:15.097Z,13.00
2022-10-02T08:02:18.121Z,13.00
2022-10-02T08:03:53.804Z,13.06
2022-10-02T08:04:56.617Z,13.13
2022-10-02T08:05:59.339Z,13.13
2022-10-02T08:07:34.159Z,13.25
2022-10-02T08:08:37.136Z,13.25
2022-10-02T08:09:40.244Z,13.31
2022-10-02T08:11:14.942Z,13.38
2022-10-02T08:12:24.053Z,13.44
2022-10-02T08:13:27.086Z,13.44
2022-10-02T08:15:01.672Z,13.44
2022-10-02T08:16:05.009Z,13.50
2022-10-02T08:17:08.696Z,13.50
2022-10-02T08:19:16.044Z,13.56
2022-10-02T08:20:19.061Z,13.56
2022-10-02T08:21:26.800Z,13.56
2022-10-02T08:23:01.605Z,13.63
2022-10-02T08:24:04.565Z,13.63
2022-10-02T08:25:07.465Z,13.69
2022-10-02T08:26:42.557Z,13.75
2022-10-02T08:27:45.661Z,13.75
2022-10-02T08:28:49.086Z,13.81
2022-10-02T08:30:23.903Z,13.81
2022-10-02T08:31:27.116Z,13.81
2022-10-02T08:32:34.554Z,13.88
2022-10-02T08:34:09.634Z,13.88
2022-10-02T08:35:12.705Z,13.88
2022-10-02T08:36:15.619Z,13.94
2022-10-02T08:37:51.202Z,14.00
2022-10-02T08:38:54.974Z,14.06
2022-10-02T08:39:58.145Z,14.06
2022-10-02T08:41:32.757Z,14.19
2022-10-02T08:42:35.527Z,14.25
2022-10-02T08:43:38.291Z,14.31
2022-10-02T08:45:16.789Z,14.38
2022-10-02T08:46:20.144Z,14.44
2022-10-02T08:47:23.326Z,14.44
2022-10-02T08:48:57.903Z,14.50
2022-10-02T08:50:00.710Z,14.50
2022-10-02T08:51:03.619Z,14.56
2022-10-02T08:52:38.220Z,14.63
2022-10-02T08:53:41.003Z,14.63
2022-10-02T08:54:43.692Z,14.69
2022-10-02T08:56:20.290Z,14.69
2022-10-02T08:57:24.001Z,14.75
2022-10-02T08:58:26.834Z,14.81
2022-10-02T09:00:11.917Z,14.81
2022-10-02T09:01:14.989Z,14.81
2022-10-02T09:02:18.416Z,14.81
2022-10-02T09:03:53.471Z,14.94
2022-10-02T09:04:56.378Z,14.94
2022-10-02T09:05:59.258Z,14.94
2022-10-02T09:07:33.894Z,15.06
2022-10-02T09:08:36.824Z,15.06
2022-10-02T09:09:39.712Z,15.06
2022-10-02T09:11:14.392Z,15.06
2022-10-02T09:12:17.423Z,15.06
2022-10-02T09:13:20.153Z,15.13
2022-10-02T09:14:58.633Z,15.13
2022-10-02T09:16:02.004Z,15.13
2022-10-02T09:17:05.445Z,15.19
2022-10-02T09:18:39.926Z,15.31
2022-10-02T09:19:42.695Z,15.31
2022-10-02T09:20:45.769Z,15.31
2022-10-02T09:22:27.098Z,15.44
2022-10-02T09:23:29.956Z,15.50
2022-10-02T09:24:32.945Z,15.56
2022-10-02T09:26:07.952Z,15.63
2022-10-02T09:27:11.258Z,15.63
2022-10-02T09:28:14.110Z,15.63
2022-10-02T09:29:49.354Z,15.63
2022-10-02T09:30:52.285Z,15.63
2022-10-02T09:31:55.393Z,15.63
2022-10-02T09:33:30.086Z,15.63
2022-10-02T09:34:33.350Z,15.63
2022-10-02T09:35:36.400Z,15.63
2022-10-02T09:37:11.458Z,15.69
2022-10-02T09:38:14.372Z,15.69
2022-10-02T09:39:21.753Z,15.75
2022-10-02T09:40:56.517Z,15.81
2022-10-02T09:41:59.666Z,15.81
2022-10-02T09:43:02.645Z,15.81
2022-10-02T09:44:37.399Z,15.81
2022-10-02T09:45:45.206Z,15.81
2022-10-02T09:46:48.626Z,15.94
2022-10-02T09:48:23.335Z,16.06
2022-10-02T09:49:26.186Z,16.13
2022-10-02T09:50:29.166Z,16.19
2022-10-02T09:52:03.999Z,16.19
2022-10-02T09:53:07.044Z,16.25
2022-10-02T09:54:10.051Z,16.19
2022-10-02T09:55:44.983Z,16.19
2022-10-02T09:56:47.769Z,16.13
2022-10-02T09:57:50.736Z,16.13
2022-10-02T09:59:25.345Z,16.13
2022-10-02T10:00:12.612Z,16.13
2022-10-02T10:01:15.621Z,16.13
2022-10-02T10:02:22.236Z,16.13
2022-10-02T10:03:59.823Z,16.19
2022-10-02T10:05:28.948Z,16.19
2022-10-02T10:06:31.921Z,16.19
2022-10-02T10:08:07.477Z,16.25
2022-10-02T10:09:10.314Z,16.25
2022-10-02T10:10:13.160Z,16.31
2022-10-02T10:11:48.166Z,16.31
2022-10-02T10:12:51.002Z,16.31
2022-10-02T10:13:54.005Z,16.25
2022-10-02T10:15:28.685Z,16.25
2022-10-02T10:16:31.624Z,16.25
2022-10-02T10:17:34.644Z,16.19
2022-10-02T10:19:09.281Z,16.19
2022-10-02T10:20:12.282Z,16.19
2022-10-02T10:21:15.050Z,16.13
2022-10-02T10:22:54.150Z,16.25
2022-10-02T10:23:57.282Z,16.31
2022-10-02T10:24:59.995Z,16.31
2022-10-02T10:26:34.528Z,16.44
2022-10-02T10:27:42.285Z,16.44
2022-10-02T10:28:46.943Z,16.50
2022-10-02T10:30:21.740Z,16.50
2022-10-02T10:31:24.724Z,16.50
2022-10-02T10:32:28.621Z,16.50
2022-10-02T10:34:03.449Z,16.56
2022-10-02T10:35:06.255Z,16.56
2022-10-02T10:36:09.208Z,16.56
2022-10-02T10:37:43.922Z,16.56
2022-10-02T10:38:46.702Z,16.50
2022-10-02T10:39:49.692Z,16.50
2022-10-02T10:41:24.480Z,16.44
2022-10-02T10:42:27.903Z,16.44
2022-10-02T10:44:03.273Z,16.44
2022-10-02T10:45:38.184Z,16.50
2022-10-02T10:46:41.834Z,16.50
2022-10-02T10:47:44.649Z,16.44
2022-10-02T10:49:24.408Z,16.38
2022-10-02T10:50:27.301Z,16.31
2022-10-02T10:51:30.498Z,16.25
2022-10-02T10:53:05.669Z,16.19
2022-10-02T10:54:08.505Z,16.13
2022-10-02T10:55:11.273Z,16.13
2022-10-02T10:56:46.015Z,16.13
2022-10-02T10:57:48.812Z,16.06
2022-10-02T10:58:51.605Z,16.00
2022-10-02T11:00:11.984Z,15.94
2022-10-02T11:01:14.928Z,15.88
2022-10-02T11:02:18.724Z,15.81
2022-10-02T11:03:54.103Z,15.81
2022-10-02T11:04:56.871Z,15.75
2022-10-02T11:05:59.740Z,15.75
2022-10-02T11:07:34.600Z,15.75
2022-10-02T11:08:37.435Z,15.75
2022-10-02T11:09:40.361Z,15.75
2022-10-02T11:11:15.195Z,15.75
2022-10-02T11:12:18.961Z,15.75
2022-10-02T11:13:21.948Z,15.75
2022-10-02T11:14:56.542Z,15.75
2022-10-02T11:15:59.374Z,15.75
2022-10-02T11:17:02.721Z,15.69
2022-10-02T11:18:37.515Z,15.69
2022-10-02T11:19:40.407Z,15.69
2022-10-02T11:20:43.675Z,15.63
2022-10-02T11:22:19.916Z,15.63
2022-10-02T11:23:22.709Z,15.63
2022-10-02T11:24:25.649Z,15.63
2022-10-02T11:26:00.405Z,15.63
2022-10-02T11:27:03.325Z,15.69
2022-10-02T11:28:06.263Z,15.75
2022-10-02T11:29:41.302Z,15.81
2022-10-02T11:30:44.073Z,15.88
2022-10-02T11:31:47.189Z,15.94
2022-10-02T11:33:22.478Z,16.00
2022-10-02T11:34:25.477Z,16.06
2022-10-02T11:35:28.241Z,16.00
2022-10-02T11:37:02.861Z,16.00
2022-10-02T11:38:05.899Z,15.88
2022-10-02T11:39:08.657Z,15.81
2022-10-02T11:40:43.250Z,15.81
2022-10-02T11:41:46.500Z,15.69
2022-10-02T11:42:49.309Z,15.63
2022-10-02T11:44:30.067Z,15.56
2022-10-02T11:45:33.125Z,15.56
2022-10-02T11:46:36.367Z,15.56
2022-10-02T11:48:10.941Z,15.56
2022-10-02T11:49:13.670Z,15.56
2022-10-02T11:50:16.564Z,15.63
2022-10-02T11:51:51.061Z,15.75
2022-10-02T11:52:53.932Z,15.81
2022-10-02T11:53:56.850Z,15.88
2022-10-02T11:55:31.533Z,16.06
2022-10-02T11:56:34.514Z,16.13
2022-10-02T11:57:37.497Z,16.25
2022-10-02T11:59:12.144Z,16.31
2022-10-02T12:00:12.731Z,16.38
2022-10-02T12:01:15.795Z,16.38
2022-10-02T12:02:19.957Z,16.44
2022-10-02T12:03:56.480Z,16.50
2022-10-02T12:04:59.268Z,16.63
2022-10-02T12:06:01.994Z,16.69
2022-10-02T12:07:36.771Z,16.81
2022-10-02T12:08:39.683Z,16.88
2022-10-02T12:09:42.750Z,16.88
2022-10-02T12:11:17.422Z,16.81
2022-10-02T12:12:25.692Z,16.81
2022-10-02T12:13:30.953Z,16.81
2022-10-02T12:15:05.925Z,16.81
2022-10-02T12:16:09.151Z,16.88
2022-10-02T12:17:12.803Z,16.88
2022-10-02T12:18:47.644Z,17.06
2022-10-02T12:19:50.687Z,17.13
2022-10-02T12:20:53.712Z,17.25
2022-10-02T12:22:28.652Z,17.38
2022-10-02T12:23:31.770Z,17.38
2022-10-02T12:24:34.932Z,17.44
2022-10-02T12:26:13.159Z,17.50
2022-10-02T12:27:16.338Z,17.50
2022-10-02T12:28:19.439Z,17.44
2022-10-02T12:29:54.913Z,17.31
2022-10-02T12:30:58.073Z,17.25
2022-10-02T12:32:01.182Z,17.13
2022-10-02T12:33:36.293Z,17.13
2022-10-02T12:34:43.010Z,17.13
2022-10-02T12:35:46.100Z,17.19
2022-10-02T12:37:21.082Z,17.25
2022-10-02T12:38:24.141Z,17.25
2022-10-02T12:39:27.230Z,17.25
2022-10-02T12:41:02.300Z,17.25
2022-10-02T12:42:05.414Z,17.31
2022-10-02T12:43:08.755Z,17.31
2022-10-02T12:44:43.700Z,17.38
2022-10-02T12:45:52.213Z,17.44
2022-10-02T12:46:55.733Z,17.50
2022-10-02T12:48:30.610Z,17.63
2022-10-02T12:49:33.641Z,17.69
2022-10-02T12:50:36.761Z,17.75
2022-10-02T12:52:18.212Z,17.88
2022-10-02T12:53:21.395Z,17.81
2022-10-02T12:54:24.255Z,17.88
2022-10-02T12:55:59.270Z,17.94
2022-10-02T12:57:02.274Z,18.00
2022-10-02T12:58:05.292Z,17.94
2022-10-02T12:59:40.354Z,18.00
2022-10-02T13:00:12.405Z,18.00
2022-10-02T13:01:15.494Z,17.94
2022-10-02T13:02:19.778Z,17.94
2022-10-02T13:04:25.847Z,17.75
2022-10-02T13:05:28.852Z,17.69
2022-10-02T13:06:37.853Z,17.56
2022-10-02T13:08:12.762Z,17.50
2022-10-02T13:09:15.612Z,17.44
2022-10-02T13:10:22.112Z,17.38
2022-10-02T13:11:56.905Z,17.19
2022-10-02T13:12:59.977Z,17.13
2022-10-02T13:14:02.703Z,17.00
2022-10-02T13:15:37.921Z,16.81
2022-10-02T13:16:40.830Z,16.69
2022-10-02T13:17:50.244Z,16.63
2022-10-02T13:19:24.783Z,16.56
2022-10-02T13:20:27.624Z,16.44
2022-10-02T13:21:30.537Z,16.38
2022-10-02T13:23:05.838Z,16.25
2022-10-02T13:24:08.879Z,16.13
2022-10-02T13:25:11.874Z,16.13
2022-10-02T13:26:46.630Z,16.13
2022-10-02T13:27:49.752Z,16.13
2022-10-02T13:28:53.158Z,16.06
2022-10-02T13:30:28.082Z,16.06
2022-10-02T13:31:31.001Z,16.06
2022-10-02T13:32:35.159Z,16.06
2022-10-02T13:34:09.986Z,16.13
2022-10-02T13:35:18.849Z,16.13
2022-10-02T13:36:21.935Z,16.13
2022-10-02T13:38:04.302Z,16.06
2022-10-02T13:39:07.288Z,16.00
2022-10-02T13:40:10.491Z,16.00
2022-10-02T13:41:45.513Z,15.94
2022-10-02T13:42:48.482Z,15.94
2022-10-02T13:43:52.541Z,15.88
2022-10-02T13:45:30.400Z,15.81
2022-10-02T13:46:33.854Z,15.81
2022-10-02T13:47:36.997Z,15.81
2022-10-02T13:49:12.086Z,15.88
2022-10-02T13:50:17.681Z,15.94
2022-10-02T13:51:20.866Z,16.00
2022-10-02T13:52:56.501Z,16.13
2022-10-02T13:53:59.705Z,16.19
2022-10-02T13:55:02.624Z,16.25
2022-10-02T13:56:37.752Z,16.31
2022-10-02T13:57:40.674Z,16.38
2022-10-02T13:58:43.498Z,16.38
2022-10-02T14:00:11.842Z,16.44
2022-10-02T14:01:14.945Z,16.44
2022-10-02T14:02:18.949Z,16.50
2022-10-02T14:03:53.789Z,16.50
2022-10-02T14:04:57.214Z,16.56
2022-10-02T14:06:00.134Z,16.63
2022-10-02T14:07:34.982Z,16.69
2022-10-02T14:08:38.004Z,16.75
2022-10-02T14:09:40.997Z,16.75
2022-10-02T14:11:15.852Z,16.81
2022-10-02T14:12:19.778Z,16.88
2022-10-02T14:13:22.824Z,16.94
2022-10-02T14:14:57.439Z,17.00
2022-10-02T14:16:00.482Z,17.00
2022-10-02T14:17:03.758Z,17.00
2022-10-02T14:18:38.308Z,17.00
2022-10-02T14:19:41.215Z,16.94
2022-10-02T14:20:44.400Z,16.88
2022-10-02T14:22:20.233Z,16.88
2022-10-02T14:23:23.101Z,16.88
2022-10-02T14:24:25.936Z,16.88
2022-10-02T14:26:00.816Z,16.81
2022-10-02T14:27:03.737Z,16.81
2022-10-02T14:28:06.746Z,16.81
2022-10-02T14:29:48.929Z,16.69
2022-10-02T14:30:51.965Z,16.69
2022-10-02T14:31:55.285Z,16.63
2022-10-02T14:33:30.324Z,16.63
2022-10-02T14:34:33.151Z,16.63
2022-10-02T14:35:36.321Z,16.63
2022-10-02T14:37:11.242Z,16.56
2022-10-02T14:38:14.319Z,16.63
2022-10-02T14:39:17.028Z,16.56
2022-10-02T14:40:52.006Z,16.56
2022-10-02T14:41:55.032Z,16.56
2022-10-02T14:42:57.923Z,16.56
2022-10-02T14:44:32.967Z,16.50
2022-10-02T14:45:35.889Z,16.44
2022-10-02T14:46:39.231Z,16.31
2022-10-02T14:48:18.692Z,16.31
2022-10-02T14:49:21.748Z,16.19
2022-10-02T14:50:25.075Z,16.19
2022-10-02T14:51:59.742Z,16.13
2022-10-02T14:53:02.555Z,16.13
2022-10-02T14:54:05.520Z,16.06
2022-10-02T14:55:40.271Z,16.06
2022-10-02T14:56:43.534Z,16.06
2022-10-02T14:57:51.023Z,16.00
2022-10-02T14:59:25.945Z,16.00
2022-10-02T15:00:12.803Z,15.94
2022-10-02T15:01:15.708Z,15.94
2022-10-02T15:02:19.836Z,15.94
2022-10-02T15:03:54.636Z,15.88
2022-10-02T15:05:01.120Z,15.81
2022-10-02T15:06:07.346Z,15.81
2022-10-02T15:07:42.175Z,15.81
2022-10-02T15:08:45.097Z,15.81
2022-10-02T15:09:47.975Z,15.81
2022-10-02T15:11:22.715Z,15.75
2022-10-02T15:12:26.894Z,15.75
2022-10-02T15:13:36.797Z,15.75
2022-10-02T15:15:11.717Z,15.75
2022-10-02T15:16:15.054Z,15.75
2022-10-02T15:17:18.341Z,15.81
2022-10-02T15:18:53.275Z,15.81
2022-10-02T15:19:56.324Z,15.88
2022-10-02T15:20:59.620Z,15.94
2022-10-02T15:22:34.434Z,15.94
2022-10-02T15:23:37.261Z,15.94
2022-10-02T15:24:40.327Z,15.94
2022-10-02T15:26:15.456Z,15.88
2022-10-02T15:27:18.385Z,15.88
2022-10-02T15:28:35.888Z,15.88
2022-10-02T15:30:12.513Z,15.88
2022-10-02T15:31:15.724Z,15.81
2022-10-02T15:32:19.660Z,15.81
2022-10-02T15:33:57.521Z,15.81
2022-10-02T15:35:00.461Z,15.75
2022-10-02T15:36:03.476Z,15.75
2022-10-02T15:37:38.277Z,15.75
2022-10-02T15:38:41.191Z,15.75
2022-10-02T15:39:48.716Z,15.69
2022-10-02T15:41:27.639Z,15.69
2022-10-02T15:42:31.293Z,15.69
2022-10-02T15:43:43.669Z,15.69
2022-10-02T15:45:18.506Z,15.69
2022-10-02T15:46:22.129Z,15.69
2022-10-02T15:47:25.652Z,15.69
2022-10-02T15:49:00.403Z,15.63